Station: Clare  

  Atmospheric Gas Attenuation - ITU Rec 676-11   ----------------- dB/100km -----------------
Date Time Temp RH % AH g/m3 Dew Point Wind Direction Speed kph Gust kph Barometer mB Rainfall Since 9am 24GHz 47GHz 76GHz 122GHz 134GHz 241GHz
07/05 11:30 12.3 60 6.52 4.8 15 22 1030.5 0 15.2 23.7 33.1 86.2 74.5 254.2
07/05 11:20 12.8 61 6.83 5.5 17 20 1030.6 0 15.9 24.0 34.0 88.8 77.9 266.4
07/05 11:10 11.8 58 6.11 3.8 22 28 1030.6 0 14.4 23.2 31.7 82.6 69.8 237.7
07/05 11:00 12.1 57 6.11 3.9 15 24 1030.5 0 14.4 23.1 31.6 82.2 69.5 236.8
07/05 10:50 12.6 57 6.31 4.3 15 20 1030.6 0 14.8 23.3 32.1 83.7 71.6 244.1
07/05 10:40 12.3 57 6.19 4 15 22 1030.5 0 14.5 23.1 31.8 82.8 70.3 239.7
07/05 10:30 12 57 6.08 3.8 17 30 1030.4 0 14.3 23.1 31.5 82.0 69.2 235.8
07/05 10:20 12.2 61 6.58 4.9 15 22 1030.5 0 15.3 23.8 33.3 86.9 75.3 257.2
07/05 10:10 11.8 64 6.74 5.2 11 13 1030.5 0 15.7 24.1 34.1 89.0 77.7 265.6
07/05 10:00 11.8 66 6.95 5.7 13 24 1030.3 0 16.1 24.5 34.9 91.2 80.4 275.1
07/05 09:50 11.5 66 6.82 5.4 13 15 1030.3 0 15.9 24.3 34.5 90.1 79.1 270.2
07/05 09:40 11.4 66 6.78 5.3 15 19 1030.2 0 15.8 24.3 34.4 89.8 78.6 268.7
07/05 09:30 11.2 67 6.79 5.3 13 20 1030.1 0 15.8 24.4 34.6 90.2 79.0 269.8
07/05 09:20 11.2 69 7 5.7 7 11 1030.2 0 16.3 24.7 35.4 92.4 81.7 279.4
07/05 09:10 10.8 67 6.62 4.9 17 24 1030.1 0 15.5 24.2 34.1 88.8 77.2 263.5
07/05 09:00 10.9 66 6.57 4.8 13 22 1030 0 15.4 24.1 33.8 88.2 76.4 260.9
07/05 08:50 10.6 69 6.74 5.2 11 15 1030 9.6 15.8 24.4 34.6 90.3 78.9 269.6
07/05 08:40 10.2 69 6.57 4.8 13 19 1029.8 9.6 15.4 24.3 34.1 88.9 77.1 263.1
07/05 08:30 10.1 72 6.81 5.3 13 24 1029.7 9.6 15.9 24.7 35.1 91.6 80.3 274.4
07/05 08:20 9.7 71 6.55 4.7 19 20 1029.7 9.6 15.4 24.4 34.2 89.3 77.3 263.8
07/05 08:10 9.6 73 6.69 5 11 15 1029.6 9.6 15.7 24.6 34.8 90.9 79.2 270.6
07/05 08:00 9.4 74 6.69 5 9 17 1029.4 9.6 15.7 24.7 34.9 91.1 79.4 271.2
07/05 07:50 8.6 77 6.62 4.8 7 9 1029.5 9.6 15.6 24.8 35.0 91.3 79.3 270.8
07/05 07:40 8.5 77 6.58 4.7 4 6 1029.3 9.6 15.5 24.7 34.9 90.9 78.9 269.2
07/05 07:30 8 81 6.7 4.9 4 6 1029.1 9.6 15.8 25.1 35.6 92.8 81.0 276.5
07/05 07:20 7.6 80 6.45 4.4 6 7 1029.1 9.6 15.3 24.8 34.7 90.5 78.0 266.1
07/05 07:10 7.9 79 6.49 4.5 6 6 1029 9.6 15.3 24.7 34.7 90.6 78.3 267.0
07/05 07:00 8.1 78 6.49 4.5 7 13 1028.8 9.6 15.3 24.7 34.6 90.4 78.1 266.2
07/05 06:50 8.5 77 6.58 4.7 9 9 1028.6 9.6 15.5 24.7 34.8 90.9 78.8 269.0
07/05 06:40 8.8 74 6.44 4.4 15 19 1028.6 9.6 15.2 24.4 34.1 89.0 76.7 261.5
07/05 06:30 9 72 6.35 4.2 11 15 1028.3 9.6 15.0 24.2 33.7 87.8 75.3 256.7
07/05 06:20 9 72 6.35 4.2 11 11 1028.2 9.6 15.0 24.2 33.7 87.8 75.3 256.7
07/05 06:10 9 72 6.35 4.2 9 11 1028.1 9.6 15.0 24.2 33.7 87.8 75.3 256.6
07/05 06:00 9.2 71 6.34 4.2 11 17 1028 9.6 15.0 24.1 33.5 87.5 74.9 255.5
07/05 05:50 9 71 6.26 4 11 11 1028 9.6 14.8 24.0 33.3 86.8 74.1 252.5
07/05 05:40 8.8 71 6.18 3.8 9 11 1027.9 9.6 14.6 23.9 33.1 86.2 73.2 249.4
07/05 05:30 8.7 71 6.14 3.7 9 15 1027.7 9.6 14.5 23.9 32.9 85.9 72.8 247.9
07/05 05:20 8.7 73 6.32 4.1 11 13 1027.8 9.6 14.9 24.2 33.7 87.8 75.2 256.2
07/05 05:10 8.4 73 6.2 3.8 7 7 1027.7 9.6 14.7 24.1 33.3 86.8 73.9 251.6
07/05 05:00 8.5 72 6.15 3.8 7 15 1027.5 9.6 14.6 24.0 33.1 86.2 73.1 248.9
07/05 04:50 8.5 73 6.24 3.9 6 7 1027.5 9.6 14.8 24.1 33.4 87.1 74.3 253.1
07/05 04:40 8.6 72 6.19 3.8 6 7 1027.5 9.6 14.7 24.0 33.2 86.5 73.5 250.5
07/05 04:30 8.6 71 6.1 3.6 6 11 1027.3 9.6 14.5 23.9 32.8 85.5 72.3 246.3
07/05 04:20 8.6 72 6.19 3.8 9 9 1027.4 9.6 14.7 24.0 33.2 86.5 73.5 250.4
07/05 04:10 8.9 71 6.22 3.9 9 13 1027.4 9.6 14.7 24.0 33.2 86.5 73.6 250.9
07/05 04:00 9.1 70 6.21 3.9 11 17 1027.2 9.6 14.7 23.9 33.0 86.1 73.3 249.7
07/05 03:50 9.1 69 6.12 3.7 11 15 1027.3 9.6 14.5 23.7 32.7 85.2 72.1 245.7
07/05 03:40 9.1 71 6.3 4.1 11 13 1027.2 9.6 14.9 24.0 33.4 87.1 74.5 253.8
07/05 03:30 9 71 6.26 4 9 13 1027.1 9.6 14.8 24.0 33.3 86.8 74.0 252.3
07/05 03:20 9.1 70 6.21 3.9 9 11 1027.1 9.6 14.7 23.9 33.0 86.1 73.3 249.7
07/05 03:10 9.1 71 6.3 4.1 9 11 1027.2 9.6 14.9 24.0 33.4 87.1 74.5 253.8
07/05 03:00 9.2 69 6.16 3.8 11 20 1027.1 9.6 14.6 23.8 32.8 85.5 72.6 247.1
07/05 02:50 9.1 69 6.12 3.7 9 11 1027.3 9.6 14.5 23.7 32.7 85.2 72.1 245.7
07/05 02:40 9.2 69 6.16 3.8 15 19 1027.2 9.6 14.6 23.8 32.8 85.5 72.6 247.1
07/05 02:30 9.1 71 6.3 4.1 15 20 1027.1 9.6 14.9 24.0 33.4 87.1 74.5 253.8
07/05 02:20 9.2 69 6.16 3.8 13 19 1027 9.6 14.6 23.8 32.8 85.5 72.5 247.1
07/05 02:10 9.2 72 6.43 4.4 15 17 1027 9.6 15.1 24.2 33.9 88.3 76.1 259.4
07/05 02:00 9.3 74 6.65 4.9 13 20 1026.9 9.6 15.6 24.5 34.7 90.5 78.8 269.2
07/05 01:50 9.3 74 6.65 4.9 11 15 1027.1 9.6 15.6 24.5 34.7 90.6 78.8 269.2
07/05 01:40 9.3 75 6.74 5.1 9 13 1027.1 9.6 15.8 24.7 35.1 91.5 80.0 273.4
07/05 01:30 9.4 76 6.88 5.4 15 28 1026.9 9.6 16.1 24.9 35.6 92.9 81.8 279.5
07/05 01:20 9.6 74 6.78 5.2 17 20 1027 9.6 15.9 24.7 35.1 91.6 80.2 274.2
07/05 01:10 9.5 76 6.92 5.5 17 20 1026.9 9.6 16.2 24.9 35.7 93.2 82.2 281.0
07/05 01:00 9.6 77 7.06 5.8 17 30 1026.7 9.6 16.5 25.1 36.2 94.6 83.9 287.1
07/05 00:50 9.5 80 7.28 6.2 11 15 1026.9 9.6 17.0 25.5 37.1 97.1 87.0 297.8
07/05 00:40 9.7 81 7.47 6.6 13 20 1026.8 9.6 17.3 25.7 37.8 98.9 89.3 306.0
07/05 00:30 9.7 84 7.75 7.1 11 24 1026.6 9.6 18.0 26.2 39.0 102.0 93.1 319.3
07/05 00:20 9.8 85 7.89 7.4 13 17 1026.5 9.6 18.2 26.4 39.5 103.4 94.9 325.6
07/05 00:10 9.9 85 7.94 7.5 15 20 1026.5 9.6 18.3 26.5 39.6 103.8 95.5 327.6
07/05 00:00 10.1 84 7.95 7.5 13 20 1026.4 9.6 18.4 26.4 39.6 103.6 95.4 327.2
06/05 23:50 10.1 88 8.32 8.2 13 15 1026.3 9.6 19.2 27.0 41.1 107.8 100.4 345.0
06/05 23:40 10.2 89 8.47 8.5 17 22 1026.3 9.6 19.5 27.3 41.7 109.3 102.4 351.9
06/05 23:30 10.2 90 8.57 8.6 13 20 1026.1 9.6 19.7 27.4 42.1 110.4 103.8 356.7
06/05 23:20 10.3 91 8.72 8.9 9 11 1026.1 9.6 20.0 27.6 42.7 112.0 105.7 363.6
06/05 23:10 10.5 92 8.92 9.3 15 20 1026.1 9.6 20.4 27.9 43.5 114.0 108.3 372.5
06/05 23:00 10.6 91 8.88 9.2 17 30 1025.9 9.6 20.3 27.8 43.2 113.4 107.6 370.0
06/05 22:50 10.7 92 9.04 9.5 17 20 1026 9.6 20.7 28.1 43.9 115.1 109.7 377.4
06/05 22:40 10.7 92 9.04 9.5 20 26 1026 9.6 20.7 28.1 43.9 115.1 109.7 377.4
06/05 22:30 10.8 93 9.19 9.7 15 22 1025.8 9.6 21.0 28.3 44.4 116.6 111.6 384.3
06/05 22:20 10.9 93 9.25 9.8 13 17 1025.8 9.6 21.1 28.4 44.6 117.2 112.4 386.8
06/05 22:10 11.1 93 9.37 10 19 22 1025.8 9.6 21.4 28.5 45.0 118.2 113.8 391.7
06/05 22:00 11 93 9.31 9.9 15 26 1025.6 9.6 21.2 28.4 44.8 117.7 113.0 389.2
06/05 21:50 11 93 9.31 9.9 19 24 1025.7 9.6 21.2 28.4 44.8 117.7 113.0 389.2
06/05 21:40 10.8 94 9.29 9.9 13 20 1025.6 9.6 21.2 28.5 44.9 117.7 113.1 389.2
06/05 21:30 11 95 9.51 10.2 17 28 1025.5 9.6 21.7 28.8 45.7 120.0 115.9 399.1
06/05 21:20 11.2 95 9.63 10.4 13 17 1025.6 9.4 21.9 28.9 46.1 121.1 117.3 404.1
06/05 21:10 11.3 95 9.69 10.5 13 15 1025.5 9.2 22.0 29.0 46.3 121.6 118.0 406.6
06/05 21:00 11.4 95 9.75 10.6 13 24 1025.4 9 22.2 29.1 46.5 122.1 118.7 409.0
06/05 20:50 11.4 95 9.75 10.6 17 22 1025.4 9 22.2 29.1 46.5 122.1 118.7 409.0
06/05 20:40 11.5 95 9.81 10.7 11 13 1025.3 9 22.3 29.1 46.7 122.7 119.4 411.5
06/05 20:30 11.8 95 10 11 13 20 1025.2 9 22.7 29.4 47.3 124.4 121.6 419.4
06/05 20:20 12 96 10.23 11.4 9 11 1025.2 9 23.2 29.7 48.2 126.8 124.6 429.9
06/05 20:10 12.1 96 10.3 11.5 9 13 1025.1 8.6 23.3 29.8 48.5 127.4 125.5 432.8
06/05 20:00 12 95 10.13 11.2 9 13 1024.8 8.2 22.9 29.5 47.8 125.5 123.2 424.7
06/05 19:50 11.9 95 10.06 11.1 7 9 1024.8 8.2 22.8 29.4 47.5 124.9 122.3 421.7
06/05 19:40 11.8 95 10 11 7 11 1024.8 8.2 22.7 29.3 47.3 124.3 121.6 419.2
06/05 19:30 11.8 95 10 11 9 17 1024.6 8.2 22.7 29.3 47.3 124.3 121.6 419.2
06/05 19:20 12 96 10.23 11.4 9 11 1024.5 8.2 23.2 29.7 48.2 126.7 124.6 429.6
06/05 19:10 12.1 96 10.3 11.5 7 9 1024.4 8.2 23.3 29.7 48.4 127.3 125.4 432.6
06/05 19:00 11.9 96 10.17 11.3 6 9 1024.3 8.2 23.0 29.6 48.0 126.1 123.8 427.1

Last Refresh: 07-May-2026 11:35:46

Bureau of Meteorology